Aérodrome :
LOGIN :

S'inscrire | Disclaimer

   EN    FR    IT 

 










Légende :    VFR   VFR Marginal   IFR   IFR Intensif   IFR Très Intensif
Visi : 
Plafond : 
>= 8 km
>= 3000ft
5 à 8 km
1000 à 3000 ft
1500m à 5 km
500 à 1000 ft
800 à 1500m
200 à 500 ft
< 800m
< 200 ft
Symboles :   Orages  Brouillard  Fortes neiges  Fortes précipitations  Vent > 20 kt
SIGMETs :   Divers  Orages  Givrage  Turbulence  Onde Orograph.  Cendres Volcan.







- Altitude de l'aérodrome : 697 ft
- Code IATA : PEG


LIRZ - San Edigio Perugia

METAR N/A
TAF TAF LIRZ
Valide du 23 à 18h jusqu'au 24 à 18h UTC


231700Z 2318/2418 VRB06KT CAVOK
Pas de NOTAMs connus pour ce terrain.
2 SIGMETs publiés pour la FIR Roma (LIRR) :
 
Turbulence forte
LIRR SIGMET 8 VALID 240300/240600 LIIB
LIRR ROMA FIR SEV TURB FCST WI N4125 E01421 - N3626 E01340 - N3630 E01859 - N3853 E01856 - N3851 E01711 - N3856 E01630 - N3913 E01617 - N4110 E01509 - N4125 E01421 FL220/390 MOV E WKN=
Turbulence forte
LIRR SIGMET 7 VALID 232300/240300 LIIB
LIRR ROMA FIR SEV TURB FCST E OF LINE N4255 E01303 - N3629 E01320 FL220/390 MOV E WKN=



MET'MAP, la Météo Aéronautique d'un coup d'oeil ! - Copyright ORBIFLY Décembre 2007 - Disclaimer

ORBIFLY MET'MAP TEAM :

Programmation & Développement : Alexandra Zaïnal
Conception & Développement : Baudouin d'Aumeries
Co-Programmation & Développement : Marc-Olivier Méhu
Soutien technique & logistique : Manuel Goepfert

Contact : metmap@orbifly.com




SOURCES & CREDITS :

   NOAA